Time;durP1;ratioP1;P1;durP2;ratioP2;P2;SDS_P1;SDS_P2;PMS_P1;PMS_P2;Temp;Humidity;BMP_temperature;BMP_pressure;BME280_temperature;BME280_humidity;BME280_pressure;Samples;Min_cycle;Max_cycle;Signal;HPM_P1;HPM_P2
2022/04/21 00:01:04;;;;;;;10.27;5.80;;;9.20;92.50;;;;;;5070896;28;20492;-48
2022/04/21 00:03:30;;;;;;;9.93;5.43;;;9.00;92.90;;;;;;5070213;28;20051;-52
2022/04/21 00:05:55;;;;;;;10.55;5.85;;;9.00;93.30;;;;;;5070797;28;20045;-48
2022/04/21 00:08:21;;;;;;;9.32;5.45;;;8.90;93.50;;;;;;5062246;28;20055;-48
2022/04/21 00:10:47;;;;;;;9.43;5.82;;;9.00;94.00;;;;;;5070770;28;20044;-48
2022/04/21 00:13:12;;;;;;;9.50;5.60;;;8.90;93.90;;;;;;5067896;28;20036;-50
2022/04/21 00:15:38;;;;;;;10.77;6.13;;;8.90;94.20;;;;;;5055423;28;20124;-48
2022/04/21 00:18:04;;;;;;;12.75;5.63;;;8.80;94.20;;;;;;5073826;28;20377;-48
2022/04/21 00:20:30;;;;;;;14.70;6.13;;;8.80;94.60;;;;;;5072919;28;20052;-50
2022/04/21 00:25:39;;;;;;;12.10;5.55;;;8.80;94.90;;;;;;5074138;28;20133;-48
2022/04/21 00:28:08;;;;;;;9.25;5.88;;;8.80;94.80;;;;;;5072619;28;20072;-50
2022/04/21 00:30:34;;;;;;;11.27;6.30;;;8.70;95.20;;;;;;5071148;28;20127;-48
2022/04/21 00:32:59;;;;;;;9.23;5.50;;;8.70;95.10;;;;;;5073666;28;20120;-48
2022/04/21 00:35:25;;;;;;;9.70;5.35;;;8.60;95.50;;;;;;5072806;28;20127;-48
2022/04/21 00:37:56;;;;;;;9.88;5.88;;;8.60;95.90;;;;;;5073899;28;20032;-47
2022/04/21 00:40:23;;;;;;;11.98;6.68;;;8.70;95.40;;;;;;5073857;28;20040;-48
2022/04/21 00:42:49;;;;;;;8.77;6.05;;;8.60;95.90;;;;;;5073642;28;20049;-48
2022/04/21 00:45:15;;;;;;;9.43;5.85;;;8.50;96.40;;;;;;5072893;28;20210;-48
2022/04/21 00:47:43;;;;;;;9.13;5.97;;;8.50;96.80;;;;;;5073419;28;20275;-48
2022/04/21 00:50:18;;;;;;;10.20;6.50;;;8.40;96.70;;;;;;5072475;28;20040;-50
2022/04/21 00:52:45;;;;;;;10.07;5.65;;;8.40;96.80;;;;;;5073378;28;20416;-48
2022/04/21 00:55:11;;;;;;;14.82;6.55;;;8.30;97.30;;;;;;5070755;28;20528;-48
2022/04/21 00:57:39;;;;;;;11.50;6.38;;;8.30;97.30;;;;;;5051003;28;20068;-48
2022/04/21 01:00:06;;;;;;;11.70;6.45;;;8.30;97.70;;;;;;5071490;28;20043;-48
2022/04/21 01:02:50;;;;;;;10.52;6.53;;;8.40;97.80;;;;;;5063179;28;20492;-49
2022/04/21 01:05:31;;;;;;;11.52;6.70;;;8.30;97.70;;;;;;5069251;28;20500;-48
2022/04/21 01:08:05;;;;;;;10.93;6.82;;;8.30;97.80;;;;;;5053368;28;20036;-48
2022/04/21 01:10:32;;;;;;;13.82;6.35;;;8.20;98.30;;;;;;5053244;28;20111;-49
2022/04/21 01:12:59;;;;;;;13.05;6.43;;;8.30;98.40;;;;;;5053695;28;20045;-48
2022/04/21 01:15:25;;;;;;;13.77;6.78;;;8.20;98.70;;;;;;5071946;28;20064;-48
2022/04/21 01:17:52;;;;;;;14.70;6.65;;;8.20;98.60;;;;;;5072742;28;20084;-48
2022/04/21 01:20:27;;;;;;;10.18;6.50;;;8.20;98.80;;;;;;5073270;28;20071;-47
2022/04/21 01:22:54;;;;;;;13.10;6.40;;;8.10;98.90;;;;;;5073129;28;20040;-48
2022/04/21 01:25:21;;;;;;;11.93;6.43;;;8.10;99.00;;;;;;5071692;28;20502;-48
2022/04/21 01:27:48;;;;;;;16.05;7.13;;;8.00;99.00;;;;;;5071535;28;20106;-48
2022/04/21 01:30:14;;;;;;;11.15;7.30;;;8.00;99.30;;;;;;5053905;28;20044;-48
2022/04/21 01:32:48;;;;;;;12.65;7.00;;;8.10;99.40;;;;;;5072611;28;20403;-51
2022/04/21 01:35:14;;;;;;;11.02;6.72;;;8.00;99.40;;;;;;5072605;28;20056;-51
2022/04/21 01:43:09;;;;;;;10.95;7.40;;;7.90;99.90;;;;;;5066610;28;20051;-51
2022/04/21 01:45:35;;;;;;;10.25;6.88;;;7.90;99.70;;;;;;5070012;28;20492;-50
2022/04/21 01:48:02;;;;;;;10.85;6.75;;;7.90;99.90;;;;;;5072237;28;20407;-50
2022/04/21 01:50:28;;;;;;;11.15;6.95;;;7.80;99.90;;;;;;5071437;28;20053;-50
2022/04/21 01:52:56;;;;;;;11.15;7.20;;;7.80;99.90;;;;;;5072343;28;20043;-50
2022/04/21 01:55:21;;;;;;;11.23;7.25;;;7.80;99.90;;;;;;5070085;28;20032;-52
2022/04/21 01:57:47;;;;;;;12.05;6.82;;;7.80;99.90;;;;;;5072108;28;20115;-52
2022/04/21 02:00:13;;;;;;;13.82;7.05;;;7.80;99.90;;;;;;5070290;28;20033;-49
2022/04/21 02:02:38;;;;;;;12.20;7.50;;;7.80;99.90;;;;;;5071691;28;20112;-52
2022/04/21 02:05:04;;;;;;;10.30;7.10;;;7.70;99.90;;;;;;5071886;28;20544;-50
2022/04/21 02:07:30;;;;;;;11.23;7.32;;;7.70;99.90;;;;;;5072083;28;20040;-51
2022/04/21 02:09:56;;;;;;;12.98;7.90;;;7.60;99.90;;;;;;5072245;28;20036;-51
2022/04/21 02:12:25;;;;;;;12.65;7.63;;;7.70;99.90;;;;;;5069827;28;20036;-53
2022/04/21 02:14:51;;;;;;;11.90;8.18;;;7.60;99.90;;;;;;5070453;28;20385;-51
2022/04/21 02:17:17;;;;;;;12.25;7.10;;;7.60;99.90;;;;;;5071642;28;20583;-50
2022/04/21 02:19:43;;;;;;;14.23;7.70;;;7.60;99.90;;;;;;5071736;28;20071;-49
2022/04/21 02:22:08;;;;;;;12.15;7.43;;;7.50;99.90;;;;;;5071987;28;20488;-51
2022/04/21 02:24:34;;;;;;;11.90;7.38;;;7.40;99.90;;;;;;5071937;28;20068;-50
2022/04/21 02:27:00;;;;;;;13.63;7.97;;;7.40;99.90;;;;;;5070673;28;20036;-48
2022/04/21 02:29:25;;;;;;;13.00;7.75;;;7.40;99.90;;;;;;5070506;28;20036;-48
2022/04/21 02:31:51;;;;;;;11.95;7.53;;;7.30;99.90;;;;;;5071747;28;20488;-49
2022/04/21 02:34:16;;;;;;;13.60;7.85;;;7.30;99.90;;;;;;5069924;28;20037;-48
2022/04/21 02:36:42;;;;;;;14.15;7.30;;;7.40;99.90;;;;;;5071452;28;20028;-48
2022/04/21 02:39:07;;;;;;;14.57;8.15;;;7.50;99.90;;;;;;5071472;28;20392;-48
2022/04/21 02:41:33;;;;;;;12.18;7.90;;;7.50;99.90;;;;;;5071675;28;20115;-48
2022/04/21 02:43:59;;;;;;;14.23;7.60;;;7.60;99.90;;;;;;5068024;28;20067;-48
2022/04/21 02:46:28;;;;;;;14.60;8.77;;;7.60;99.90;;;;;;5070011;28;20048;-50
2022/04/21 02:48:58;;;;;;;13.50;8.65;;;7.70;99.90;;;;;;5071784;28;20064;-48
2022/04/21 02:51:24;;;;;;;12.30;7.95;;;7.60;99.90;;;;;;5071791;28;20040;-48
2022/04/21 02:59:18;;;;;;;14.50;8.32;;;7.60;99.90;;;;;;5070050;28;20416;-48
2022/04/21 03:01:43;;;;;;;14.65;8.57;;;7.60;99.90;;;;;;5071451;28;20036;-49
2022/04/21 03:04:09;;;;;;;13.50;8.48;;;7.50;99.90;;;;;;5070967;28;20041;-50
2022/04/21 03:06:34;;;;;;;18.92;9.60;;;7.60;99.90;;;;;;5071249;28;20089;-48
2022/04/21 03:09:00;;;;;;;13.68;8.73;;;7.50;99.90;;;;;;5071017;28;20081;-49
2022/04/21 03:11:25;;;;;;;14.93;8.68;;;7.50;99.90;;;;;;5070447;28;20116;-50
2022/04/21 03:13:51;;;;;;;12.48;8.25;;;7.50;99.90;;;;;;5066754;28;20028;-48
2022/04/21 03:16:16;;;;;;;16.67;9.10;;;7.40;99.90;;;;;;5062583;28;20040;-48
2022/04/21 03:18:42;;;;;;;12.75;8.82;;;7.40;99.90;;;;;;5071046;28;20082;-51
2022/04/21 03:26:36;;;;;;;16.02;9.32;;;7.40;99.90;;;;;;5069400;28;20550;-47
2022/04/21 03:29:01;;;;;;;16.85;9.65;;;7.20;99.90;;;;;;5070143;28;20072;-48
2022/04/21 03:31:27;;;;;;;15.43;9.02;;;7.20;99.90;;;;;;5071131;28;20058;-47
2022/04/21 03:33:53;;;;;;;18.42;9.60;;;7.20;99.90;;;;;;5122607;22;20431;-47
2022/04/21 03:36:19;;;;;;;14.82;9.35;;;7.20;99.90;;;;;;5030708;28;20492;-46
2022/04/21 03:38:44;;;;;;;14.65;9.18;;;7.00;99.90;;;;;;5030674;28;20034;-47
2022/04/21 03:41:10;;;;;;;17.63;10.20;;;7.10;99.90;;;;;;5022229;28;20611;-46
2022/04/21 03:43:36;;;;;;;14.27;8.95;;;7.10;99.90;;;;;;5022165;28;20041;-45
2022/04/21 03:46:01;;;;;;;18.10;9.55;;;7.10;99.90;;;;;;5025764;28;20413;-45
2022/04/21 03:48:27;;;;;;;16.38;10.25;;;7.10;99.90;;;;;;5028177;28;20048;-46
2022/04/21 03:50:52;;;;;;;14.55;8.80;;;7.10;99.90;;;;;;5015148;28;20069;-46
2022/04/21 03:53:18;;;;;;;15.40;9.63;;;7.10;99.90;;;;;;5034866;28;20292;-45
2022/04/21 03:55:43;;;;;;;17.90;10.00;;;7.00;99.90;;;;;;5034137;28;20041;-47
2022/04/21 03:58:09;;;;;;;16.33;9.57;;;7.00;99.90;;;;;;5028037;28;20045;-47
2022/04/21 04:00:34;;;;;;;13.43;9.57;;;7.00;99.90;;;;;;5026665;28;20092;-46
2022/04/21 04:03:00;;;;;;;15.30;10.15;;;7.20;99.90;;;;;;5034472;28;20076;-45
2022/04/21 04:05:25;;;;;;;18.35;10.20;;;6.90;99.90;;;;;;5034520;28;20045;-46
2022/04/21 04:10:53;;;;;;;15.57;9.48;;;6.90;99.90;;;;;;5034669;28;20056;-51
2022/04/21 04:13:20;;;;;;;17.48;9.32;;;7.10;99.90;;;;;;5012661;28;20041;-45
2022/04/21 04:15:48;;;;;;;14.98;10.00;;;7.00;99.90;;;;;;5022674;28;20045;-46
2022/04/21 04:18:18;;;;;;;14.80;9.80;;;6.90;99.90;;;;;;4997275;28;20038;-48
2022/04/21 04:20:44;;;;;;;15.80;9.95;;;6.90;99.90;;;;;;5014575;28;20046;-48
2022/04/21 04:23:09;;;;;;;16.85;10.18;;;6.90;99.90;;;;;;5014817;28;20044;-46
2022/04/21 04:25:35;;;;;;;16.88;10.13;;;6.80;99.90;;;;;;5029081;28;20045;-46
2022/04/21 04:28:04;;;;;;;18.77;10.10;;;6.80;99.90;;;;;;5006701;28;20045;-46
2022/04/21 04:30:31;;;;;;;16.85;10.43;;;6.70;99.90;;;;;;5034529;28;20129;-48
2022/04/21 04:32:57;;;;;;;16.70;10.27;;;6.70;99.90;;;;;;5032104;28;20041;-46
2022/04/21 04:35:24;;;;;;;16.50;10.88;;;6.80;99.90;;;;;;5031296;28;20044;-48
2022/04/21 04:37:51;;;;;;;16.23;10.30;;;6.80;99.90;;;;;;5028883;28;20037;-48
2022/04/21 04:40:17;;;;;;;16.52;10.65;;;6.70;99.90;;;;;;5017711;28;20057;-46
2022/04/21 04:42:43;;;;;;;16.75;10.90;;;6.70;99.90;;;;;;5004018;28;20125;-48
2022/04/21 04:47:53;;;;;;;17.10;11.20;;;6.70;99.90;;;;;;5020251;28;20049;-46
2022/04/21 04:50:18;;;;;;;18.13;10.68;;;6.70;99.90;;;;;;5025847;28;20037;-46
2022/04/21 04:52:44;;;;;;;16.70;10.45;;;6.70;99.90;;;;;;5020008;28;20064;-46
2022/04/21 04:55:11;;;;;;;16.40;10.88;;;6.80;99.90;;;;;;5025322;28;20046;-48
2022/04/21 04:57:38;;;;;;;15.88;10.50;;;6.80;99.90;;;;;;5022883;28;20049;-51
2022/04/21 05:00:05;;;;;;;16.83;10.32;;;6.80;99.90;;;;;;5021434;28;20038;-49
2022/04/21 05:02:31;;;;;;;14.77;10.48;;;6.80;99.90;;;;;;5021006;28;20479;-49
2022/04/21 05:04:57;;;;;;;17.77;11.18;;;6.80;99.90;;;;;;5011167;28;20568;-49
2022/04/21 05:07:23;;;;;;;18.63;11.13;;;6.80;99.90;;;;;;5019082;28;20132;-52
2022/04/21 05:09:49;;;;;;;13.90;8.18;;;6.80;99.90;;;;;;5007183;28;20033;-49
2022/04/21 05:12:14;;;;;;;16.38;9.57;;;6.80;99.90;;;;;;5015264;28;20128;-49
2022/04/21 05:14:41;;;;;;;17.15;10.02;;;6.80;99.90;;;;;;5025261;28;20116;-49
2022/04/21 05:17:07;;;;;;;16.30;10.63;;;6.90;99.90;;;;;;4982193;28;20037;-49
2022/04/21 05:19:32;;;;;;;17.58;10.20;;;6.90;99.90;;;;;;5031551;28;20087;-49
2022/04/21 05:22:04;;;;;;;16.30;10.07;;;6.90;99.90;;;;;;5025963;28;20511;-49
2022/04/21 05:24:31;;;;;;;15.48;10.15;;;6.90;99.90;;;;;;5026877;28;20071;-49
2022/04/21 05:26:57;;;;;;;16.30;9.90;;;6.90;99.90;;;;;;5005791;28;20037;-52
2022/04/21 05:32:09;;;;;;;16.45;10.07;;;7.10;99.90;;;;;;5019502;28;20052;-49
2022/04/21 05:34:35;;;;;;;16.48;8.27;;;7.10;99.90;;;;;;5013552;28;20466;-50
2022/04/21 05:37:03;;;;;;;15.95;9.68;;;7.20;99.90;;;;;;5022427;28;20071;-49
2022/04/21 05:39:30;;;;;;;18.67;10.73;;;7.30;99.90;;;;;;5023040;28;20493;-51
2022/04/21 05:42:00;;;;;;;17.13;10.20;;;7.30;99.90;;;;;;5020455;28;20041;-52
2022/04/21 05:44:27;;;;;;;16.58;10.85;;;7.30;99.90;;;;;;5023325;28;20033;-49
2022/04/21 05:46:53;;;;;;;17.80;9.80;;;7.40;99.90;;;;;;5024742;28;20037;-52
2022/04/21 05:49:19;;;;;;;19.55;10.00;;;7.50;99.90;;;;;;5016151;28;20042;-52
2022/04/21 05:51:48;;;;;;;15.15;9.85;;;7.50;99.90;;;;;;5023020;28;20609;-50
2022/04/21 05:54:15;;;;;;;17.92;10.50;;;7.70;99.90;;;;;;5017981;28;20555;-50
2022/04/21 05:56:41;;;;;;;15.90;10.38;;;7.90;99.90;;;;;;5021981;28;20041;-49
2022/04/21 05:59:07;;;;;;;15.88;10.30;;;8.20;99.90;;;;;;5017869;28;20026;-52
2022/04/21 06:01:32;;;;;;;14.70;10.13;;;8.40;99.90;;;;;;5009071;28;20044;-50
2022/04/21 06:03:58;;;;;;;14.25;9.82;;;8.70;99.90;;;;;;5008758;28;20159;-52
2022/04/21 06:06:23;;;;;;;14.45;9.45;;;8.90;99.90;;;;;;5031292;28;20390;-52
2022/04/21 06:08:49;;;;;;;14.30;9.07;;;9.10;99.90;;;;;;5017200;28;20045;-52
2022/04/21 06:11:16;;;;;;;15.82;9.57;;;9.10;99.90;;;;;;5017102;28;20075;-52
2022/04/21 06:13:42;;;;;;;16.92;9.70;;;9.10;99.90;;;;;;5023489;28;20037;-52
2022/04/21 06:16:08;;;;;;;16.15;9.73;;;9.00;99.90;;;;;;5017764;28;20072;-51
2022/04/21 06:18:36;;;;;;;17.67;10.15;;;9.10;99.90;;;;;;5012167;28;20034;-52
2022/04/21 06:21:02;;;;;;;17.33;8.88;;;9.40;99.90;;;;;;5017715;28;20038;-51
2022/04/21 06:23:28;;;;;;;14.50;8.70;;;9.60;99.90;;;;;;5013243;28;20485;-52
2022/04/21 06:25:58;;;;;;;15.07;9.35;;;9.50;99.90;;;;;;5020639;28;20525;-52
2022/04/21 06:28:25;;;;;;;14.82;9.25;;;9.60;99.90;;;;;;5028669;28;20046;-51
2022/04/21 06:30:51;;;;;;;14.32;8.88;;;9.50;99.90;;;;;;5032083;28;20038;-52
2022/04/21 06:33:18;;;;;;;12.07;8.23;;;9.50;99.90;;;;;;5031063;28;20041;-49
2022/04/21 06:35:46;;;;;;;14.88;8.70;;;9.50;99.90;;;;;;5005961;28;20073;-50
2022/04/21 06:38:13;;;;;;;14.07;8.30;;;9.50;99.90;;;;;;5014406;28;20033;-51
2022/04/21 06:40:39;;;;;;;13.23;8.52;;;9.60;99.90;;;;;;5031872;28;20033;-52
2022/04/21 06:48:01;;;;;;;13.25;8.10;;;9.60;99.90;;;;;;5031895;28;20045;-52
2022/04/21 06:48:40;;;;;;;9.25;5.93;;;9.70;99.90;;;;;;5028643;28;20393;-49
2022/04/21 06:51:07;;;;;;;13.68;7.90;;;9.90;99.50;;;;;;5017968;28;20037;-51
2022/04/21 06:53:34;;;;;;;11.13;7.10;;;9.90;99.50;;;;;;5031749;28;20513;-51
2022/04/21 06:56:00;;;;;;;11.85;6.85;;;10.00;99.60;;;;;;5031525;28;20120;-48
2022/04/21 06:58:25;;;;;;;11.82;7.68;;;10.10;97.80;;;;;;5031599;28;20116;-51
2022/04/21 07:00:51;;;;;;;10.63;6.63;;;10.10;98.20;;;;;;5031417;28;20175;-48
2022/04/21 07:03:16;;;;;;;11.20;5.82;;;10.20;97.40;;;;;;5030882;28;20048;-51
2022/04/21 07:05:42;;;;;;;9.40;5.47;;;10.30;96.90;;;;;;5023404;28;20052;-51
2022/04/21 07:08:07;;;;;;;8.40;5.47;;;10.40;96.00;;;;;;5031586;28;20041;-51
2022/04/21 07:10:34;;;;;;;10.15;5.85;;;10.60;94.90;;;;;;5031511;28;20038;-52
2022/04/21 07:13:08;;;;;;;7.63;4.75;;;10.70;94.90;;;;;;5031099;28;20041;-50
2022/04/21 07:15:33;;;;;;;7.43;4.63;;;10.70;93.60;;;;;;5031271;28;20127;-54
2022/04/21 07:17:59;;;;;;;7.55;4.57;;;10.90;92.40;;;;;;5028278;28;20088;-52
2022/04/21 07:20:24;;;;;;;7.05;4.60;;;10.90;93.00;;;;;;5023094;28;20046;-52
2022/04/21 07:22:50;;;;;;;9.90;4.30;;;10.90;93.30;;;;;;5031386;28;20029;-51
2022/04/21 07:25:15;;;;;;;12.63;5.47;;;11.10;92.80;;;;;;5033328;28;20084;-52
2022/04/21 07:27:41;;;;;;;8.68;5.20;;;11.20;93.30;;;;;;5026995;28;20116;-49
2022/04/21 07:30:08;;;;;;;9.35;4.70;;;11.30;93.10;;;;;;5035046;28;20116;-51
2022/04/21 07:32:34;;;;;;;7.10;4.88;;;11.40;92.00;;;;;;5031397;28;20041;-51
2022/04/21 07:35:00;;;;;;;9.57;5.00;;;11.50;92.70;;;;;;5023524;28;20366;-49
2022/04/21 07:37:26;;;;;;;9.02;4.75;;;11.60;92.40;;;;;;4997924;28;20042;-51
2022/04/21 07:39:52;;;;;;;6.47;4.15;;;11.80;91.20;;;;;;5020536;28;20080;-50
2022/04/21 07:42:17;;;;;;;8.45;4.45;;;11.80;90.40;;;;;;5026896;28;20230;-52
2022/04/21 07:44:43;;;;;;;9.32;4.40;;;12.00;90.30;;;;;;5017379;28;20408;-52
2022/04/21 07:47:09;;;;;;;7.40;4.15;;;12.10;90.20;;;;;;5034188;28;20045;-49
2022/04/21 07:49:47;;;;;;;7.50;3.95;;;12.20;87.50;;;;;;5024961;28;20084;-52
2022/04/21 07:55:05;;;;;;;6.00;3.90;;;12.40;85.50;;;;;;5014710;28;20064;-49
2022/04/21 07:57:31;;;;;;;7.05;3.67;;;12.50;84.30;;;;;;5015125;28;20077;-50
2022/04/21 07:59:56;;;;;;;4.78;2.63;;;12.70;82.60;;;;;;5014959;28;20084;-50
2022/04/21 08:02:22;;;;;;;4.68;3.00;;;12.80;77.30;;;;;;5017785;28;20029;-52
2022/04/21 08:04:48;;;;;;;4.93;2.80;;;12.90;77.80;;;;;;4984364;28;20052;-51
2022/04/21 08:07:14;;;;;;;5.85;3.00;;;13.00;75.20;;;;;;5000223;28;20046;-52
2022/04/21 08:09:40;;;;;;;6.10;2.67;;;13.00;73.10;;;;;;5034994;28;20558;-50
2022/04/21 08:12:07;;;;;;;5.53;2.42;;;13.10;70.10;;;;;;5010818;28;20069;-51
2022/04/21 08:14:33;;;;;;;4.03;2.47;;;13.10;71.10;;;;;;5032569;28;20045;-51
2022/04/21 08:16:59;;;;;;;4.65;2.90;;;13.20;71.30;;;;;;5014976;28;20523;-54
2022/04/21 08:19:24;;;;;;;5.57;3.20;;;13.30;70.80;;;;;;5028904;28;20437;-52
2022/04/21 08:21:50;;;;;;;6.53;2.78;;;13.30;70.40;;;;;;5026239;28;20064;-51
2022/04/21 08:32:43;;;;;;;4.78;2.63;;;13.70;67.10;;;;;;5020339;28;20145;-53
2022/04/21 08:35:13;;;;;;;5.40;3.30;;;13.70;66.60;;;;;;5025146;28;20052;-53
2022/04/21 08:37:45;;;;;;;4.20;2.70;;;13.70;68.50;;;;;;5002580;28;20056;-57
2022/04/21 08:40:11;;;;;;;6.57;3.10;;;13.80;67.00;;;;;;5023635;28;20504;-56
2022/04/21 08:42:39;;;;;;;5.22;3.00;;;13.90;66.40;;;;;;5024776;28;20144;-55
2022/04/21 08:45:06;;;;;;;5.75;3.88;;;13.90;67.50;;;;;;5022736;28;20045;-56
2022/04/21 08:47:32;;;;;;;9.35;3.20;;;14.00;66.90;;;;;;5025772;28;20073;-55
2022/04/21 08:50:12;;;;;;;4.38;3.00;;;14.00;67.80;;;;;;4983581;28;20108;-53
2022/04/21 08:52:39;;;;;;;6.30;2.97;;;14.20;66.30;;;;;;5020750;28;20076;-56
2022/04/21 08:55:05;;;;;;;4.70;3.05;;;14.30;65.80;;;;;;5027072;28;20141;-56
2022/04/21 08:57:31;;;;;;;6.55;3.13;;;14.30;67.00;;;;;;5003021;28;20042;-56
2022/04/21 08:59:58;;;;;;;6.68;3.42;;;14.40;68.10;;;;;;5022279;28;20493;-56
2022/04/21 09:02:34;;;;;;;5.35;3.13;;;14.40;65.70;;;;;;5030655;28;20033;-56
2022/04/21 09:05:01;;;;;;;6.35;3.35;;;14.50;66.00;;;;;;5013520;28;20092;-55
2022/04/21 09:07:27;;;;;;;6.60;3.50;;;14.60;65.90;;;;;;5016383;28;20060;-52
2022/04/21 09:10:13;;;;;;;7.10;3.35;;;14.60;67.10;;;;;;5018220;28;20030;-56
2022/04/21 09:12:45;;;;;;;7.20;3.40;;;14.70;66.90;;;;;;5024798;28;20048;-55
2022/04/21 09:15:14;;;;;;;7.03;3.10;;;14.80;67.90;;;;;;5001586;28;20038;-54
2022/04/21 09:17:45;;;;;;;7.45;3.50;;;14.90;66.20;;;;;;5022974;28;20125;-57
2022/04/21 09:20:11;;;;;;;5.45;2.97;;;15.10;65.80;;;;;;5019716;28;20454;-56
2022/04/21 09:22:42;;;;;;;7.10;3.28;;;15.10;65.80;;;;;;5023790;28;20038;-56
2022/04/21 09:25:09;;;;;;;4.35;2.80;;;15.20;63.60;;;;;;5019031;28;20054;-57
2022/04/21 09:27:40;;;;;;;6.53;3.72;;;15.20;62.50;;;;;;5012264;28;20120;-55
2022/04/21 09:30:10;;;;;;;7.45;2.60;;;15.20;62.20;;;;;;5013449;28;20041;-56
2022/04/21 09:32:37;;;;;;;8.95;3.33;;;15.20;61.70;;;;;;5026923;28;20128;-56
2022/04/21 09:35:16;;;;;;;5.97;3.00;;;15.20;61.10;;;;;;5039869;28;20048;-54
2022/04/21 09:38:11;;;;;;;4.13;2.70;;;15.20;59.90;;;;;;5014745;28;20037;-56
2022/04/21 09:40:44;;;;;;;4.65;2.83;;;15.20;61.00;;;;;;5018376;28;20041;-56
2022/04/21 09:43:09;;;;;;;5.25;3.05;;;15.10;59.60;;;;;;5000588;28;20050;-56
2022/04/21 09:48:28;;;;;;;5.30;3.25;;;15.10;59.50;;;;;;5027159;28;20106;-56
2022/04/21 09:50:54;;;;;;;4.60;2.65;;;15.20;59.80;;;;;;4986398;28;20213;-57
2022/04/21 09:53:23;;;;;;;6.13;3.00;;;15.10;62.10;;;;;;5020393;28;20174;-57
2022/04/21 09:55:52;;;;;;;6.72;3.13;;;15.30;59.50;;;;;;5004943;28;20096;-53
2022/04/21 09:58:18;;;;;;;6.15;3.20;;;15.30;60.20;;;;;;5009977;28;20049;-55
2022/04/21 10:00:45;;;;;;;5.43;2.92;;;15.40;59.40;;;;;;5011418;28;20713;-57
2022/04/21 10:03:11;;;;;;;4.03;2.60;;;15.50;59.10;;;;;;5025138;28;20055;-56
2022/04/21 10:05:39;;;;;;;5.75;2.78;;;15.60;59.60;;;;;;5019725;28;20087;-56
2022/04/21 10:08:10;;;;;;;5.55;2.80;;;15.70;59.70;;;;;;5001534;28;20057;-54
2022/04/21 10:10:42;;;;;;;5.60;3.30;;;15.90;57.20;;;;;;5139042;27;20298;-54
2022/04/21 10:13:08;;;;;;;5.97;3.22;;;15.80;56.70;;;;;;5083133;28;20555;-55
2022/04/21 10:15:34;;;;;;;7.57;3.13;;;15.80;58.90;;;;;;5100225;28;20042;-54
2022/04/21 10:18:00;;;;;;;4.45;2.20;;;15.90;56.70;;;;;;5088434;28;20032;-55
2022/04/21 10:20:29;;;;;;;6.65;3.08;;;15.90;56.70;;;;;;5094603;28;20081;-53
2022/04/21 10:22:56;;;;;;;5.70;3.10;;;16.00;57.90;;;;;;5091789;28;20039;-52
2022/04/21 10:25:39;;;;;;;6.68;2.92;;;16.10;58.70;;;;;;5102559;28;20070;-54
2022/04/21 10:28:48;;;;;;;4.57;2.70;;;16.10;59.70;;;;;;5065141;28;20035;-52
2022/04/21 10:31:31;;;;;;;4.07;2.90;;;16.30;55.80;;;;;;5096576;28;20522;-54
2022/04/21 10:34:01;;;;;;;4.82;2.35;;;16.30;56.70;;;;;;5078701;28;20098;-54
2022/04/21 10:36:57;;;;;;;5.78;3.13;;;16.40;53.80;;;;;;5062610;28;20540;-52
2022/04/21 10:39:27;;;;;;;3.83;2.75;;;16.30;54.50;;;;;;5085664;28;20493;-56
2022/04/21 10:42:17;;;;;;;7.63;3.00;;;16.30;55.50;;;;;;5072725;28;20032;-56
2022/04/21 10:44:48;;;;;;;5.18;3.05;;;16.40;57.10;;;;;;5074230;28;20044;-57
2022/04/21 10:47:35;;;;;;;5.82;3.05;;;16.40;54.70;;;;;;5069831;28;20099;-56
2022/04/21 10:50:12;;;;;;;6.32;2.92;;;16.40;54.00;;;;;;5070754;28;20068;-56
2022/04/21 10:57:55;;;;;;;5.47;2.70;;;16.50;55.50;;;;;;5074928;28;20039;-57
2022/04/21 11:00:29;;;;;;;5.32;3.38;;;16.60;52.30;;;;;;5070970;28;20040;-56
2022/04/21 11:03:06;;;;;;;6.60;3.00;;;16.60;54.50;;;;;;5070990;28;20094;-56
2022/04/21 11:05:36;;;;;;;4.80;2.72;;;16.60;54.60;;;;;;5068281;28;20048;-56
2022/04/21 11:08:04;;;;;;;4.40;2.72;;;16.70;53.80;;;;;;5068782;28;20404;-56
2022/04/21 11:10:41;;;;;;;4.18;2.63;;;16.70;53.60;;;;;;5071215;28;20032;-57
2022/04/21 11:13:11;;;;;;;6.50;3.00;;;16.80;52.30;;;;;;5068057;28;20073;-57
2022/04/21 11:15:45;;;;;;;5.82;2.80;;;16.80;51.60;;;;;;5069285;28;20037;-57
2022/04/21 11:18:14;;;;;;;7.78;3.03;;;16.90;52.10;;;;;;5067297;28;20041;-56
2022/04/21 11:20:44;;;;;;;3.38;2.67;;;16.80;52.30;;;;;;5081853;28;20049;-56
2022/04/21 11:23:22;;;;;;;4.40;2.50;;;16.80;51.70;;;;;;5063245;28;20453;-57
2022/04/21 12:28:47;;;;;;;8.13;3.60;;;16.50;52.60;;;;;;5136821;27;20137;-56
2022/04/21 12:33:42;;;;;;;5.50;3.10;;;16.90;53.10;;;;;;5086722;28;20040;-49
2022/04/21 12:36:07;;;;;;;7.07;3.45;;;16.90;51.60;;;;;;5080286;28;20036;-50
2022/04/21 12:39:11;;;;;;;5.25;3.40;;;16.90;52.00;;;;;;5075983;28;20390;-50
2022/04/21 12:41:37;;;;;;;7.03;3.60;;;16.90;52.60;;;;;;5073971;28;20433;-50
2022/04/21 12:44:03;;;;;;;5.68;3.80;;;16.90;53.40;;;;;;5082253;28;20032;-50
2022/04/21 12:46:29;;;;;;;6.97;3.53;;;16.90;52.80;;;;;;5078237;28;20051;-46
2022/04/21 12:48:55;;;;;;;8.07;3.97;;;16.90;52.10;;;;;;5083628;28;20040;-50
2022/04/21 12:51:21;;;;;;;8.48;3.65;;;16.80;53.20;;;;;;5067583;28;20517;-53
2022/04/21 12:53:57;;;;;;;8.40;4.22;;;16.80;53.20;;;;;;5065131;28;20127;-52
2022/04/21 12:56:33;;;;;;;7.70;3.92;;;16.80;54.30;;;;;;5069920;28;20041;-52
2022/04/21 12:58:59;;;;;;;8.30;4.15;;;17.00;54.90;;;;;;5065338;28;20037;-52
2022/04/21 13:01:24;;;;;;;5.43;3.70;;;17.10;55.20;;;;;;5064584;28;20483;-50
2022/04/21 13:03:50;;;;;;;9.00;4.15;;;17.20;55.70;;;;;;5080615;28;20444;-52
2022/04/21 13:06:26;;;;;;;11.63;4.70;;;17.30;54.20;;;;;;5085152;28;20067;-51
2022/04/21 13:08:51;;;;;;;5.65;3.67;;;17.40;53.90;;;;;;5067535;28;20048;-50
2022/04/21 13:11:17;;;;;;;8.15;4.28;;;17.40;53.90;;;;;;5071922;28;20040;-52
2022/04/21 13:13:42;;;;;;;10.30;4.15;;;17.50;53.50;;;;;;5070907;28;20052;-49
2022/04/21 13:16:08;;;;;;;7.88;4.22;;;17.50;52.80;;;;;;5074325;28;20055;-51
2022/04/21 13:18:35;;;;;;;6.05;3.88;;;17.60;53.50;;;;;;5078093;28;20037;-50
2022/04/21 13:23:44;;;;;;;7.15;4.30;;;17.70;52.20;;;;;;5080930;28;20524;-48
2022/04/21 13:26:10;;;;;;;9.18;3.88;;;17.60;51.50;;;;;;5087282;28;20044;-50
2022/04/21 13:28:35;;;;;;;6.20;3.65;;;17.50;52.40;;;;;;5075926;28;20068;-50
2022/04/21 13:33:45;;;;;;;11.20;4.30;;;17.50;51.00;;;;;;5070993;28;20052;-51
2022/04/21 13:36:10;;;;;;;7.43;4.00;;;17.40;52.20;;;;;;5061097;28;20041;-50
2022/04/21 13:38:36;;;;;;;7.68;3.75;;;17.30;52.50;;;;;;5073853;28;20040;-51
2022/04/21 13:41:02;;;;;;;7.65;3.88;;;17.40;53.10;;;;;;5073945;28;20494;-51
2022/04/21 13:43:28;;;;;;;8.65;3.60;;;17.50;52.20;;;;;;5074109;28;20506;-50
2022/04/21 13:45:56;;;;;;;6.88;4.05;;;17.50;52.80;;;;;;5062740;28;20037;-51
2022/04/21 13:48:22;;;;;;;7.20;3.80;;;17.40;52.70;;;;;;5066962;28;20532;-53
2022/04/21 13:50:47;;;;;;;7.88;4.10;;;17.40;53.40;;;;;;5070205;28;20057;-54
2022/04/21 13:53:13;;;;;;;10.15;4.50;;;17.30;53.80;;;;;;5068935;28;20070;-54
2022/04/21 13:55:39;;;;;;;9.00;4.32;;;17.40;53.20;;;;;;5070509;28;20037;-54
2022/04/21 13:58:05;;;;;;;5.68;4.07;;;17.20;53.10;;;;;;5064902;28;20549;-54
2022/04/21 14:00:30;;;;;;;9.25;4.68;;;17.10;53.10;;;;;;5067877;28;20104;-54
2022/04/21 14:02:56;;;;;;;8.75;4.30;;;17.20;54.10;;;;;;5059689;28;20035;-52
2022/04/21 14:05:22;;;;;;;7.85;4.60;;;17.20;54.70;;;;;;5075889;28;20460;-54
2022/04/21 14:07:48;;;;;;;10.07;4.15;;;17.30;54.90;;;;;;5066981;28;20051;-53
2022/04/21 14:10:13;;;;;;;6.07;4.20;;;17.40;54.90;;;;;;5075405;28;20032;-54
2022/04/21 14:12:39;;;;;;;8.05;4.15;;;17.60;55.60;;;;;;5067504;28;20082;-55
2022/04/21 14:15:07;;;;;;;6.60;3.97;;;17.70;53.80;;;;;;5072360;28;20044;-55
2022/04/21 14:17:33;;;;;;;7.97;4.55;;;17.70;54.40;;;;;;5065125;28;20041;-54
2022/04/21 14:19:59;;;;;;;8.63;4.68;;;17.80;53.80;;;;;;5065407;28;20048;-54
2022/04/21 14:22:25;;;;;;;7.47;4.50;;;17.80;53.20;;;;;;5059440;28;20033;-54
2022/04/21 14:24:52;;;;;;;7.50;3.95;;;17.80;52.90;;;;;;5067949;28;20508;-54
2022/04/21 14:27:18;;;;;;;9.80;4.32;;;17.80;53.10;;;;;;5057308;28;20045;-54
2022/04/21 14:29:43;;;;;;;6.65;3.47;;;17.80;53.30;;;;;;5062505;28;20048;-55
2022/04/21 14:32:10;;;;;;;8.95;4.15;;;17.80;52.70;;;;;;5072124;28;20040;-55
2022/04/21 14:34:37;;;;;;;8.23;4.22;;;17.70;52.90;;;;;;5070542;28;20048;-54
2022/04/21 14:37:04;;;;;;;6.25;4.45;;;17.50;53.60;;;;;;5057281;28;20456;-55
2022/04/21 14:44:59;;;;;;;6.88;4.10;;;17.10;54.20;;;;;;5065506;28;20524;-54
2022/04/21 14:47:26;;;;;;;11.18;3.92;;;17.20;54.50;;;;;;5065465;28;20036;-55
2022/04/21 14:49:52;;;;;;;8.73;4.40;;;17.20;54.00;;;;;;5065890;28;20402;-55
2022/04/21 14:52:21;;;;;;;8.75;4.28;;;17.20;54.80;;;;;;5066990;28;20048;-54
2022/04/21 14:54:47;;;;;;;7.13;4.22;;;17.20;55.80;;;;;;5070315;28;20117;-51